Time;durP1;ratioP1;P1;durP2;ratioP2;P2;SDS_P1;SDS_P2;PMS_P1;PMS_P2;Temp;Humidity;BMP_temperature;BMP_pressure;BME280_temperature;BME280_humidity;BME280_pressure;Samples;Min_cycle;Max_cycle;Signal;HPM_P1;HPM_P2
2022/10/05 00:00:12;;;;;;;;;;;11.50;99.90;;;;;;5013027;28;19975;-64
2022/10/05 00:02:40;;;;;;;;;;;11.60;99.90;;;;;;5013064;28;20412;-64
2022/10/05 00:05:16;;;;;;;;;;;11.50;99.90;;;;;;5013755;28;19964;-64
2022/10/05 00:07:45;;;;;;;;;;;11.50;99.90;;;;;;5006495;28;19972;-64
2022/10/05 00:10:14;;;;;;;;;;;11.50;99.90;;;;;;5011810;28;19987;-64
2022/10/05 00:12:43;;;;;;;;;;;11.50;99.90;;;;;;5012236;28;19990;-64
2022/10/05 00:15:12;;;;;;;;;;;11.40;99.90;;;;;;5012727;28;19971;-63
2022/10/05 00:17:41;;;;;;;;;;;11.50;99.90;;;;;;5015818;28;19965;-64
2022/10/05 00:20:15;;;;;;;;;;;11.50;99.90;;;;;;5014997;28;19964;-63
2022/10/05 00:22:44;;;;;;;;;;;11.40;99.90;;;;;;5012696;28;20456;-63
2022/10/05 00:25:14;;;;;;;;;;;11.40;99.90;;;;;;5012649;28;19964;-65
2022/10/05 00:27:42;;;;;;;;;;;11.30;99.90;;;;;;5012377;28;19973;-64
2022/10/05 00:30:14;;;;;;;;;;;11.30;99.90;;;;;;5011859;28;19965;-63
2022/10/05 00:32:42;;;;;;;;;;;11.30;99.90;;;;;;5012509;28;19971;-63
2022/10/05 00:35:10;;;;;;;;;;;11.30;99.90;;;;;;5012320;28;19969;-64
2022/10/05 00:37:38;;;;;;;;;;;11.30;99.90;;;;;;5012364;28;19975;-63
2022/10/05 00:40:11;;;;;;;;;;;11.40;99.90;;;;;;5012168;28;20064;-64
2022/10/05 00:42:41;;;;;;;;;;;11.50;99.90;;;;;;5012485;28;19969;-63
2022/10/05 00:45:13;;;;;;;;;;;11.50;99.90;;;;;;5012241;28;19973;-64
2022/10/05 00:47:45;;;;;;;;;;;11.50;99.90;;;;;;5012351;28;19986;-64
2022/10/05 00:50:32;;;;;;;;;;;11.50;99.90;;;;;;5021777;28;19964;-64
2022/10/05 00:53:05;;;;;;;;;;;11.40;99.90;;;;;;5012337;28;19971;-64
2022/10/05 00:55:40;;;;;;;;;;;11.50;99.90;;;;;;5006636;28;19971;-64
2022/10/05 00:58:16;;;;;;;;;;;11.40;99.90;;;;;;5011873;28;20051;-63
2022/10/05 01:00:50;;;;;;;;;;;11.50;99.90;;;;;;5011959;28;20451;-64
2022/10/05 01:03:20;;;;;;;;;;;11.40;99.90;;;;;;5012047;28;19976;-64
2022/10/05 01:05:55;;;;;;;;;;;11.40;99.90;;;;;;5011841;28;19964;-64
2022/10/05 01:08:26;;;;;;;;;;;11.40;99.90;;;;;;5011906;28;20719;-64
2022/10/05 01:11:02;;;;;;;;;;;11.40;99.90;;;;;;5011900;28;19971;-64
2022/10/05 01:13:32;;;;;;;;;;;11.40;99.90;;;;;;5011926;28;20074;-64
2022/10/05 01:16:04;;;;;;;;;;;11.30;99.90;;;;;;5005560;28;19964;-63
2022/10/05 01:18:37;;;;;;;;;;;11.20;99.90;;;;;;5016740;28;20492;-64
2022/10/05 01:21:07;;;;;;;;;;;11.20;99.90;;;;;;5012618;28;20067;-63
2022/10/05 01:23:53;;;;;;;;;;;11.10;99.90;;;;;;5014093;28;20353;-64
2022/10/05 01:26:29;;;;;;;;;;;11.10;99.90;;;;;;5016081;28;20349;-63
2022/10/05 01:29:02;;;;;;;;;;;11.10;99.90;;;;;;5015835;28;20438;-63
2022/10/05 01:31:34;;;;;;;;;;;11.10;99.90;;;;;;5015595;28;19975;-63
2022/10/05 01:34:06;;;;;;;;;;;11.20;99.90;;;;;;5014661;28;19975;-63
2022/10/05 01:36:43;;;;;;;;;;;11.10;99.90;;;;;;5015632;28;20027;-63
2022/10/05 01:39:16;;;;;;;;;;;11.20;99.90;;;;;;5015812;28;19965;-63
2022/10/05 01:41:46;;;;;;;;;;;11.20;99.90;;;;;;5015539;28;20055;-63
2022/10/05 01:44:17;;;;;;;;;;;11.20;99.90;;;;;;5015769;28;19968;-63
2022/10/05 01:46:48;;;;;;;;;;;11.20;99.90;;;;;;5015401;28;20341;-63
2022/10/05 01:49:32;;;;;;;;;;;11.20;99.90;;;;;;5021396;28;20413;-63
2022/10/05 01:52:04;;;;;;;;;;;11.20;99.90;;;;;;5012890;28;19968;-63
2022/10/05 01:54:36;;;;;;;;;;;11.20;99.90;;;;;;5013861;28;19967;-64
2022/10/05 01:57:13;;;;;;;;;;;11.30;99.90;;;;;;5014192;28;19965;-63
2022/10/05 01:59:53;;;;;;;;;;;11.20;99.90;;;;;;5013794;28;20350;-64
2022/10/05 02:02:22;;;;;;;;;;;11.30;99.90;;;;;;5014312;28;19966;-63
2022/10/05 02:04:51;;;;;;;;;;;11.20;99.90;;;;;;5014821;28;19976;-64
2022/10/05 02:07:36;;;;;;;;;;;11.20;99.90;;;;;;5014931;28;20018;-63
2022/10/05 02:10:05;;;;;;;;;;;11.20;99.90;;;;;;5014823;28;19969;-63
2022/10/05 02:12:36;;;;;;;;;;;11.20;99.90;;;;;;5015133;28;20047;-64
2022/10/05 02:15:09;;;;;;;;;;;11.20;99.90;;;;;;5014273;28;20445;-63
2022/10/05 02:17:39;;;;;;;;;;;11.10;99.90;;;;;;5014615;28;19967;-63
2022/10/05 02:20:10;;;;;;;;;;;11.10;99.90;;;;;;5011697;28;19965;-63
2022/10/05 02:22:39;;;;;;;;;;;11.10;99.90;;;;;;5014872;28;19969;-63
2022/10/05 02:25:09;;;;;;;;;;;11.10;99.90;;;;;;5008472;28;20361;-63
2022/10/05 02:27:39;;;;;;;;;;;11.10;99.90;;;;;;5014399;28;19972;-63
2022/10/05 02:30:08;;;;;;;;;;;11.10;99.90;;;;;;5008889;28;20689;-63
2022/10/05 02:32:47;;;;;;;;;;;11.00;99.90;;;;;;5014875;28;20484;-63
2022/10/05 02:35:16;;;;;;;;;;;11.00;99.90;;;;;;5014009;28;19964;-64
2022/10/05 02:37:49;;;;;;;;;;;11.00;99.90;;;;;;5014405;28;19979;-63
2022/10/05 02:40:23;;;;;;;;;;;11.00;99.90;;;;;;5014338;28;20063;-64
2022/10/05 02:42:54;;;;;;;;;;;11.00;99.90;;;;;;5014721;28;19970;-64
2022/10/05 02:45:27;;;;;;;;;;;10.80;99.90;;;;;;5014433;28;19964;-64
2022/10/05 02:48:00;;;;;;;;;;;10.80;99.90;;;;;;5015687;28;20437;-64
2022/10/05 02:50:31;;;;;;;;;;;10.80;99.90;;;;;;5019394;28;19964;-63
2022/10/05 02:53:04;;;;;;;;;;;10.80;99.90;;;;;;5014394;28;20354;-63
2022/10/05 02:55:36;;;;;;;;;;;10.70;99.90;;;;;;5014533;28;19968;-63
2022/10/05 02:58:07;;;;;;;;;;;10.70;99.90;;;;;;5008067;28;20442;-63
2022/10/05 03:00:39;;;;;;;;;;;10.70;99.90;;;;;;5008330;28;19965;-63
2022/10/05 03:03:09;;;;;;;;;;;10.70;99.90;;;;;;5014182;28;19976;-63
2022/10/05 03:05:38;;;;;;;;;;;10.70;99.90;;;;;;5013976;28;20335;-63
2022/10/05 03:08:09;;;;;;;;;;;10.70;99.90;;;;;;5013980;28;19969;-63
2022/10/05 03:10:39;;;;;;;;;;;10.70;99.90;;;;;;5014141;28;19971;-63
2022/10/05 03:13:09;;;;;;;;;;;10.70;99.90;;;;;;5014067;28;19964;-64
2022/10/05 03:15:59;;;;;;;;;;;10.60;99.90;;;;;;5013761;28;19971;-63
2022/10/05 03:18:35;;;;;;;;;;;10.60;99.90;;;;;;5019715;28;19965;-63
2022/10/05 03:21:09;;;;;;;;;;;10.60;99.90;;;;;;5015277;28;19965;-63
2022/10/05 03:23:42;;;;;;;;;;;10.60;99.90;;;;;;5006211;28;20441;-64
2022/10/05 03:26:18;;;;;;;;;;;10.60;99.90;;;;;;5012296;28;19967;-64
2022/10/05 03:28:51;;;;;;;;;;;10.60;99.90;;;;;;5006458;28;19987;-63
2022/10/05 03:31:23;;;;;;;;;;;10.60;99.90;;;;;;5011715;28;19971;-63
2022/10/05 03:33:54;;;;;;;;;;;10.60;99.90;;;;;;5011405;28;19965;-63
2022/10/05 03:36:27;;;;;;;;;;;10.60;99.90;;;;;;5013199;28;19968;-63
2022/10/05 03:38:59;;;;;;;;;;;10.60;99.90;;;;;;5011248;28;19968;-63
2022/10/05 03:41:31;;;;;;;;;;;10.70;99.90;;;;;;5013010;28;19960;-63
2022/10/05 03:44:06;;;;;;;;;;;10.70;99.90;;;;;;5013228;28;19964;-63
2022/10/05 03:46:44;;;;;;;;;;;10.80;99.90;;;;;;5011995;28;20009;-63
2022/10/05 03:49:16;;;;;;;;;;;10.80;99.90;;;;;;5011134;28;20505;-63
2022/10/05 03:51:46;;;;;;;;;;;10.80;99.90;;;;;;5008283;28;19968;-63
2022/10/05 03:54:17;;;;;;;;;;;10.70;99.90;;;;;;5012208;28;19965;-63
2022/10/05 03:56:47;;;;;;;;;;;10.70;99.90;;;;;;5008207;28;20051;-64
2022/10/05 03:59:16;;;;;;;;;;;10.70;99.90;;;;;;5011375;28;20018;-63
2022/10/05 04:01:49;;;;;;;;;;;10.70;99.90;;;;;;5011741;28;19997;-64
2022/10/05 04:04:20;;;;;;;;;;;10.70;99.90;;;;;;5011680;28;19968;-63
2022/10/05 04:06:49;;;;;;;;;;;10.80;99.90;;;;;;5012066;28;20450;-63
2022/10/05 04:09:20;;;;;;;;;;;10.80;99.90;;;;;;5011309;28;20455;-63
2022/10/05 04:11:50;;;;;;;;;;;10.80;99.90;;;;;;5010804;28;20455;-64
2022/10/05 04:14:21;;;;;;;;;;;10.80;99.90;;;;;;5011173;28;19961;-63
2022/10/05 04:16:54;;;;;;;;;;;10.80;99.90;;;;;;5012360;28;19964;-63
2022/10/05 04:19:24;;;;;;;;;;;10.80;99.90;;;;;;5010884;28;20260;-63
2022/10/05 04:21:53;;;;;;;;;;;10.80;99.90;;;;;;5011372;28;20632;-64
2022/10/05 04:24:24;;;;;;;;;;;10.80;99.90;;;;;;5011058;28;19964;-64
2022/10/05 04:26:54;;;;;;;;;;;10.80;99.90;;;;;;5012156;28;19975;-63
2022/10/05 04:29:27;;;;;;;;;;;10.80;99.90;;;;;;5012674;28;19964;-64
2022/10/05 04:32:02;;;;;;;;;;;10.80;99.90;;;;;;5008853;28;19971;-63
2022/10/05 04:34:36;;;;;;;;;;;10.90;99.90;;;;;;5010082;28;19961;-64
2022/10/05 04:37:07;;;;;;;;;;;10.90;99.90;;;;;;5000645;28;19991;-62
2022/10/05 04:39:38;;;;;;;;;;;10.90;99.90;;;;;;5000407;28;19972;-64
2022/10/05 04:42:10;;;;;;;;;;;10.90;99.90;;;;;;5000790;28;19969;-63
2022/10/05 04:44:44;;;;;;;;;;;11.00;99.90;;;;;;5001312;28;19972;-64
2022/10/05 04:47:26;;;;;;;;;;;11.00;99.90;;;;;;4998550;28;20985;-63
2022/10/05 04:50:00;;;;;;;;;;;11.00;99.90;;;;;;5001199;28;19970;-63
2022/10/05 04:52:35;;;;;;;;;;;11.00;99.90;;;;;;5000396;28;19968;-63
2022/10/05 04:55:07;;;;;;;;;;;11.00;99.90;;;;;;4998702;28;19972;-63
2022/10/05 04:57:40;;;;;;;;;;;10.90;99.90;;;;;;5000437;28;20440;-65
2022/10/05 05:00:18;;;;;;;;;;;11.00;99.90;;;;;;5000568;28;19992;-64
2022/10/05 05:02:57;;;;;;;;;;;10.90;99.90;;;;;;5001158;28;19979;-66
2022/10/05 05:05:30;;;;;;;;;;;10.90;99.90;;;;;;4996673;28;19968;-63
2022/10/05 05:08:06;;;;;;;;;;;10.80;99.90;;;;;;4999692;28;20209;-63
2022/10/05 05:10:38;;;;;;;;;;;10.70;99.90;;;;;;4999578;28;19972;-63
2022/10/05 05:13:12;;;;;;;;;;;10.60;99.90;;;;;;5000914;28;19983;-64
2022/10/05 05:15:45;;;;;;;;;;;10.70;99.90;;;;;;4997839;28;19984;-62
2022/10/05 05:18:28;;;;;;;;;;;10.70;99.90;;;;;;5000761;28;19972;-63
2022/10/05 05:21:00;;;;;;;;;;;10.60;99.90;;;;;;4994317;28;20437;-64
2022/10/05 05:23:33;;;;;;;;;;;10.70;99.90;;;;;;4999621;28;19976;-64
2022/10/05 05:26:06;;;;;;;;;;;10.70;99.90;;;;;;4997346;28;19972;-63
2022/10/05 05:28:39;;;;;;;;;;;10.70;99.90;;;;;;5000267;28;20059;-64
2022/10/05 05:31:10;;;;;;;;;;;10.70;99.90;;;;;;4998927;28;20074;-63
2022/10/05 05:33:44;;;;;;;;;;;10.80;99.90;;;;;;5001061;28;19976;-64
2022/10/05 05:36:34;;;;;;;;;;;10.80;99.90;;;;;;4996650;28;20003;-63
2022/10/05 05:39:11;;;;;;;;;;;10.80;99.90;;;;;;5000221;28;19983;-63
2022/10/05 05:41:41;;;;;;;;;;;10.90;99.90;;;;;;4998375;28;19977;-64
2022/10/05 05:44:15;;;;;;;;;;;10.90;99.90;;;;;;4999214;28;19973;-63
2022/10/05 05:46:46;;;;;;;;;;;10.90;99.90;;;;;;4999395;28;19999;-63
2022/10/05 05:49:37;;;;;;;;;;;10.90;99.90;;;;;;4999143;28;20023;-63
2022/10/05 05:52:14;;;;;;;;;;;10.80;99.90;;;;;;5000328;28;20239;-62
2022/10/05 05:54:43;;;;;;;;;;;10.90;99.90;;;;;;4999231;28;20280;-63
2022/10/05 05:57:13;;;;;;;;;;;10.90;99.90;;;;;;4996121;28;19972;-63
2022/10/05 05:59:47;;;;;;;;;;;11.00;99.90;;;;;;4995816;28;20713;-63
2022/10/05 06:02:17;;;;;;;;;;;11.00;99.90;;;;;;4998820;28;19973;-63
2022/10/05 06:04:47;;;;;;;;;;;11.10;99.90;;;;;;5029910;22;19996;-63
2022/10/05 06:07:19;;;;;;;;;;;11.00;99.90;;;;;;5070360;28;20017;-63
2022/10/05 06:09:48;;;;;;;;;;;11.00;99.90;;;;;;5076161;28;19972;-61
2022/10/05 06:12:18;;;;;;;;;;;11.00;99.90;;;;;;5077913;28;20074;-61
2022/10/05 06:14:47;;;;;;;;;;;11.00;99.90;;;;;;5076661;28;19971;-61
2022/10/05 06:17:17;;;;;;;;;;;11.00;99.90;;;;;;5075737;28;20096;-62
2022/10/05 06:19:45;;;;;;;;;;;11.10;99.90;;;;;;5074928;28;19979;-62
2022/10/05 06:22:16;;;;;;;;;;;11.10;99.90;;;;;;5076937;28;19982;-62
2022/10/05 06:24:53;;;;;;;;;;;11.00;99.90;;;;;;5073198;28;19972;-62
2022/10/05 06:27:24;;;;;;;;;;;11.10;99.90;;;;;;5070429;28;19964;-62
2022/10/05 06:30:13;;;;;;;;;;;11.10;99.90;;;;;;5070921;28;19979;-63
2022/10/05 06:32:47;;;;;;;;;;;11.10;99.90;;;;;;5066448;28;20420;-62
2022/10/05 06:35:19;;;;;;;;;;;11.20;99.90;;;;;;5073680;28;19968;-62
2022/10/05 06:37:56;;;;;;;;;;;11.20;99.90;;;;;;5067951;28;20360;-62
2022/10/05 06:40:30;;;;;;;;;;;11.20;99.90;;;;;;5068701;28;20425;-62
2022/10/05 06:43:18;;;;;;;;;;;11.20;99.90;;;;;;5074350;28;20466;-62
2022/10/05 06:45:54;;;;;;;;;;;11.20;99.90;;;;;;5074024;28;19972;-62
2022/10/05 06:48:27;;;;;;;;;;;11.30;99.90;;;;;;5074183;28;20329;-62
2022/10/05 06:50:57;;;;;;;;;;;11.30;99.90;;;;;;5073890;28;19978;-62
2022/10/05 06:53:31;;;;;;;;;;;11.30;99.90;;;;;;5077436;28;19974;-62
2022/10/05 06:56:04;;;;;;;;;;;11.40;99.90;;;;;;5068431;28;20000;-62
2022/10/05 06:58:41;;;;;;;;;;;11.40;99.90;;;;;;5074083;28;19968;-62
2022/10/05 07:01:14;;;;;;;;;;;11.50;99.90;;;;;;5073631;28;20444;-62
2022/10/05 07:03:47;;;;;;;;;;;11.50;99.90;;;;;;5073894;28;20393;-62
2022/10/05 07:06:16;;;;;;;;;;;11.60;99.90;;;;;;5073212;28;20312;-62
2022/10/05 07:08:54;;;;;;;;;;;11.60;99.90;;;;;;5073885;28;19963;-62
2022/10/05 07:11:30;;;;;;;;;;;11.70;99.90;;;;;;5073380;28;19964;-62
2022/10/05 07:14:09;;;;;;;;;;;11.80;99.90;;;;;;5067145;28;20429;-62
2022/10/05 07:16:39;;;;;;;;;;;11.80;99.90;;;;;;5073106;28;19968;-62
2022/10/05 07:19:17;;;;;;;;;;;11.80;99.90;;;;;;5073140;28;19963;-62
2022/10/05 07:21:52;;;;;;;;;;;11.80;99.90;;;;;;5074805;28;20421;-62
2022/10/05 07:24:26;;;;;;;;;;;11.80;99.90;;;;;;5072986;28;19964;-60
2022/10/05 07:27:01;;;;;;;;;;;11.70;99.90;;;;;;5072782;28;20428;-62
2022/10/05 07:29:32;;;;;;;;;;;11.80;99.90;;;;;;5073751;28;20070;-65
2022/10/05 07:32:06;;;;;;;;;;;11.80;99.90;;;;;;5073642;28;19964;-62
2022/10/05 07:34:40;;;;;;;;;;;11.90;99.90;;;;;;5073097;28;19964;-61
2022/10/05 07:39:57;;;;;;;;;;;12.10;99.90;;;;;;5073063;28;19967;-62
2022/10/05 07:42:44;;;;;;;;;;;12.10;99.90;;;;;;5073028;28;19975;-62
2022/10/05 07:45:23;;;;;;;;;;;12.20;99.90;;;;;;5073052;28;19972;-62
2022/10/05 07:47:53;;;;;;;;;;;12.30;99.90;;;;;;5072803;28;19963;-62
2022/10/05 07:50:23;;;;;;;;;;;12.40;99.90;;;;;;5072480;28;19968;-62
2022/10/05 07:52:55;;;;;;;;;;;12.40;99.90;;;;;;5072809;28;20476;-62
2022/10/05 07:55:24;;;;;;;;;;;12.40;99.90;;;;;;5072512;28;20387;-61
2022/10/05 07:57:59;;;;;;;;;;;12.70;99.90;;;;;;5072594;28;19967;-62
2022/10/05 08:00:29;;;;;;;;;;;12.70;99.90;;;;;;5072351;28;19963;-61
2022/10/05 08:02:59;;;;;;;;;;;12.70;99.90;;;;;;5072895;28;20070;-62
2022/10/05 08:05:28;;;;;;;;;;;12.70;99.90;;;;;;5071987;28;20445;-62
2022/10/05 08:08:00;;;;;;;;;;;12.70;99.90;;;;;;5072424;28;19963;-62
2022/10/05 08:10:31;;;;;;;;;;;12.60;99.90;;;;;;5072283;28;20074;-62
2022/10/05 08:13:05;;;;;;;;;;;12.60;99.90;;;;;;5072593;28;20069;-62
2022/10/05 08:15:34;;;;;;;;;;;12.60;99.90;;;;;;5072453;28;19967;-62
2022/10/05 08:18:05;;;;;;;;;;;12.60;99.90;;;;;;5072124;28;20437;-62
2022/10/05 08:20:39;;;;;;;;;;;12.60;99.90;;;;;;5072337;28;19975;-62
2022/10/05 08:23:11;;;;;;;;;;;12.60;99.90;;;;;;5072119;28;20327;-62
2022/10/05 08:25:45;;;;;;;;;;;12.50;99.90;;;;;;5066314;28;20444;-62
2022/10/05 08:28:15;;;;;;;;;;;12.40;99.90;;;;;;5071989;28;20065;-62
2022/10/05 08:30:50;;;;;;;;;;;12.40;99.90;;;;;;5071873;28;19967;-62
2022/10/05 08:33:19;;;;;;;;;;;12.40;99.90;;;;;;5071308;28;20325;-62
2022/10/05 08:35:54;;;;;;;;;;;12.40;99.90;;;;;;5071871;28;19979;-62
2022/10/05 08:38:27;;;;;;;;;;;12.40;99.90;;;;;;5072071;28;19964;-63
2022/10/05 08:41:04;;;;;;;;;;;12.50;99.90;;;;;;5072166;28;19967;-62
2022/10/05 08:43:47;;;;;;;;;;;12.60;99.90;;;;;;5071885;28;19964;-62
2022/10/05 08:46:25;;;;;;;;;;;12.60;99.90;;;;;;5066173;28;19967;-62
2022/10/05 08:49:26;;;;;;;;;;;12.60;99.90;;;;;;5071963;28;19964;-62
2022/10/05 08:52:22;;;;;;;;;;;12.60;99.90;;;;;;4984606;28;20446;-62
2022/10/05 08:55:02;;;;;;;;;;;12.70;99.90;;;;;;4990346;28;19965;-62
2022/10/05 08:57:45;;;;;;;;;;;12.60;99.90;;;;;;5047720;28;19967;-62
2022/10/05 09:00:16;;;;;;;;;;;12.60;99.90;;;;;;5054893;28;20018;-62
2022/10/05 09:02:58;;;;;;;;;;;12.70;99.90;;;;;;5071956;28;20010;-62
2022/10/05 09:05:41;;;;;;;;;;;12.80;99.90;;;;;;5071393;28;19967;-62
2022/10/05 09:08:19;;;;;;;;;;;12.90;99.90;;;;;;5068659;28;19967;-62
2022/10/05 09:10:58;;;;;;;;;;;13.00;99.90;;;;;;5071239;28;19963;-62
2022/10/05 09:13:32;;;;;;;;;;;13.10;99.90;;;;;;5071805;28;20058;-62
2022/10/05 09:16:12;;;;;;;;;;;13.20;99.90;;;;;;5071540;28;19964;-62
2022/10/05 09:18:51;;;;;;;;;;;13.30;99.90;;;;;;5071365;28;19968;-62
2022/10/05 09:21:28;;;;;;;;;;;13.40;99.90;;;;;;5072150;28;19986;-62
2022/10/05 09:24:04;;;;;;;;;;;13.50;99.90;;;;;;5071577;28;19964;-62
2022/10/05 09:26:50;;;;;;;;;;;13.70;99.90;;;;;;5071293;28;20437;-62
2022/10/05 09:29:35;;;;;;;;;;;13.80;99.90;;;;;;5071118;28;19977;-62
2022/10/05 09:32:17;;;;;;;;;;;14.00;99.90;;;;;;5071298;28;20031;-62
2022/10/05 09:35:01;;;;;;;;;;;14.20;99.90;;;;;;5071394;28;19977;-62
2022/10/05 09:37:44;;;;;;;;;;;14.40;99.90;;;;;;5071199;28;19967;-63
2022/10/05 09:40:27;;;;;;;;;;;14.50;99.90;;;;;;5071499;28;19967;-63
2022/10/05 09:43:03;;;;;;;;;;;14.70;99.90;;;;;;5065048;28;19963;-62
2022/10/05 09:45:38;;;;;;;;;;;14.90;99.90;;;;;;5074940;28;19979;-63
2022/10/05 09:48:31;;;;;;;;;;;15.10;99.90;;;;;;5075181;28;20420;-62
2022/10/05 09:51:09;;;;;;;;;;;15.30;99.90;;;;;;5074763;28;20377;-63
2022/10/05 09:53:46;;;;;;;;;;;15.40;99.90;;;;;;5068645;28;19959;-63
2022/10/05 09:56:22;;;;;;;;;;;15.50;99.90;;;;;;5073627;28;20017;-63
2022/10/05 09:59:06;;;;;;;;;;;15.60;99.90;;;;;;5073549;28;19967;-63
2022/10/05 10:01:40;;;;;;;;;;;15.50;99.90;;;;;;5074451;28;20478;-63
2022/10/05 10:04:29;;;;;;;;;;;15.40;99.90;;;;;;5074922;28;19999;-63
2022/10/05 10:07:12;;;;;;;;;;;15.40;99.90;;;;;;5068650;28;20006;-63
2022/10/05 10:09:43;;;;;;;;;;;15.50;99.90;;;;;;5074830;28;19986;-63
2022/10/05 10:12:17;;;;;;;;;;;15.40;99.90;;;;;;5074678;28;19964;-63
2022/10/05 10:15:14;;;;;;;;;;;15.50;99.90;;;;;;5068777;28;19967;-63
2022/10/05 10:17:57;;;;;;;;;;;15.50;99.90;;;;;;5074777;28;19964;-63
2022/10/05 10:20:38;;;;;;;;;;;15.70;99.90;;;;;;5074431;28;19964;-63
2022/10/05 10:23:19;;;;;;;;;;;15.60;99.90;;;;;;5074472;28;19972;-63
2022/10/05 10:26:15;;;;;;;;;;;15.40;99.90;;;;;;5074432;28;19973;-63
2022/10/05 10:28:52;;;;;;;;;;;15.40;99.90;;;;;;5068332;28;20052;-63
2022/10/05 10:31:39;;;;;;;;;;;15.50;99.90;;;;;;5074458;28;19990;-63
2022/10/05 10:34:17;;;;;;;;;;;15.60;99.90;;;;;;5074814;28;19968;-63
2022/10/05 10:36:57;;;;;;;;;;;15.90;99.90;;;;;;5074417;28;19963;-63
2022/10/05 10:39:32;;;;;;;;;;;16.00;99.90;;;;;;5074408;28;19962;-63
2022/10/05 10:42:14;;;;;;;;;;;16.30;99.90;;;;;;5074288;28;19968;-63
2022/10/05 10:44:53;;;;;;;;;;;16.60;99.90;;;;;;5074193;28;20367;-63
2022/10/05 10:47:36;;;;;;;;;;;16.70;99.90;;;;;;5074070;28;19965;-63
2022/10/05 10:50:25;;;;;;;;;;;16.90;99.90;;;;;;5073752;28;19967;-62
2022/10/05 10:53:01;;;;;;;;;;;16.90;99.90;;;;;;5074005;28;20308;-63
2022/10/05 10:55:40;;;;;;;;;;;17.00;99.90;;;;;;5073386;28;19962;-62
2022/10/05 10:58:27;;;;;;;;;;;17.10;99.90;;;;;;5073619;28;19968;-63
2022/10/05 11:01:02;;;;;;;;;;;17.20;99.90;;;;;;5073713;28;19962;-63
2022/10/05 11:03:49;;;;;;;;;;;17.10;99.90;;;;;;5073898;28;19967;-63
2022/10/05 11:06:22;;;;;;;;;;;17.10;99.90;;;;;;5073374;28;19966;-64
2022/10/05 11:08:57;;;;;;;;;;;17.20;99.90;;;;;;5073559;28;19989;-63
2022/10/05 11:11:43;;;;;;;;;;;17.30;99.90;;;;;;5073925;28;19990;-63
2022/10/05 11:14:25;;;;;;;;;;;17.50;99.90;;;;;;5073730;28;19985;-63
2022/10/05 11:17:14;;;;;;;;;;;17.60;99.90;;;;;;5072831;28;20455;-63
2022/10/05 11:19:44;;;;;;;;;;;17.80;99.90;;;;;;5067305;28;19972;-63
2022/10/05 11:22:38;;;;;;;;;;;17.90;99.90;;;;;;5073501;28;19967;-63
2022/10/05 11:25:19;;;;;;;;;;;18.00;99.90;;;;;;5073323;28;20452;-63
2022/10/05 11:27:52;;;;;;;;;;;18.10;99.90;;;;;;5072901;28;19966;-63
2022/10/05 11:30:29;;;;;;;;;;;18.30;99.90;;;;;;5066207;28;20376;-63
2022/10/05 11:33:24;;;;;;;;;;;18.70;99.90;;;;;;5073390;28;20411;-63
2022/10/05 11:36:04;;;;;;;;;;;19.40;99.90;;;;;;5072926;28;20049;-63
2022/10/05 11:38:41;;;;;;;;;;;20.00;99.90;;;;;;5073159;28;19968;-63
2022/10/05 11:41:27;;;;;;;;;;;20.40;99.90;;;;;;5067116;28;19972;-63
2022/10/05 11:44:14;;;;;;;;;;;21.00;99.90;;;;;;5072852;28;20019;-64
2022/10/05 11:46:47;;;;;;;;;;;21.60;99.90;;;;;;5072618;28;19962;-63
2022/10/05 11:49:22;;;;;;;;;;;21.90;99.90;;;;;;5073267;28;19966;-63
2022/10/05 11:51:54;;;;;;;;;;;22.30;99.90;;;;;;5072572;28;19962;-63
2022/10/05 11:54:28;;;;;;;;;;;22.70;99.90;;;;;;5072946;28;19963;-64
2022/10/05 11:57:07;;;;;;;;;;;22.60;99.90;;;;;;5072081;28;20065;-64
2022/10/05 11:59:38;;;;;;;;;;;22.70;99.90;;;;;;5072590;28;19963;-63
2022/10/05 12:02:26;;;;;;;;;;;22.10;99.90;;;;;;5072420;28;19976;-64
2022/10/05 12:04:58;;;;;;;;;;;21.80;99.90;;;;;;5072374;28;19973;-63
2022/10/05 12:07:31;;;;;;;;;;;21.60;99.90;;;;;;5087487;22;19969;-63
2022/10/05 12:10:15;;;;;;;;;;;21.20;99.90;;;;;;5071398;28;19966;-63
2022/10/05 12:13:00;;;;;;;;;;;20.90;99.90;;;;;;5072549;28;19966;-63
2022/10/05 12:15:31;;;;;;;;;;;20.60;99.90;;;;;;5072530;28;19962;-64
2022/10/05 12:18:07;;;;;;;;;;;20.20;99.90;;;;;;5072078;28;19972;-65
2022/10/05 12:20:39;;;;;;;;;;;19.90;99.90;;;;;;5072539;28;20354;-65
2022/10/05 12:23:11;;;;;;;;;;;19.90;99.90;;;;;;5066553;28;19962;-64
2022/10/05 12:25:42;;;;;;;;;;;20.10;99.90;;;;;;5072028;28;19973;-65
2022/10/05 12:28:12;;;;;;;;;;;20.40;99.90;;;;;;5072095;28;19985;-65
2022/10/05 12:30:57;;;;;;;;;;;20.80;99.90;;;;;;5072014;28;19962;-65
2022/10/05 12:33:28;;;;;;;;;;;21.20;99.90;;;;;;5072263;28;20009;-65
2022/10/05 12:35:59;;;;;;;;;;;21.40;99.90;;;;;;5071939;28;19969;-63
2022/10/05 12:38:28;;;;;;;;;;;21.20;99.90;;;;;;5071903;28;19973;-62
2022/10/05 12:41:03;;;;;;;;;;;21.50;99.90;;;;;;5071839;28;20457;-63
2022/10/05 12:43:35;;;;;;;;;;;21.90;99.90;;;;;;5071911;28;19970;-62
2022/10/05 12:46:08;;;;;;;;;;;22.30;99.90;;;;;;5065147;28;19962;-63
2022/10/05 12:48:54;;;;;;;;;;;22.60;99.90;;;;;;5066184;28;19988;-63
2022/10/05 12:51:27;;;;;;;;;;;22.80;99.90;;;;;;5071527;28;19962;-63
2022/10/05 12:53:57;;;;;;;;;;;22.70;99.90;;;;;;5071857;28;20235;-63
2022/10/05 12:56:33;;;;;;;;;;;23.20;99.90;;;;;;5071277;28;19968;-62
2022/10/05 12:59:06;;;;;;;;;;;23.30;99.90;;;;;;5071526;28;20351;-63
2022/10/05 13:01:38;;;;;;;;;;;23.60;99.90;;;;;;5071575;28;19962;-63
2022/10/05 13:04:13;;;;;;;;;;;23.70;99.90;;;;;;5071738;28;19964;-63
2022/10/05 13:06:44;;;;;;;;;;;23.80;99.90;;;;;;5065556;28;19966;-63
2022/10/05 13:09:14;;;;;;;;;;;24.20;99.90;;;;;;5072028;28;19972;-63
2022/10/05 13:11:44;;;;;;;;;;;24.50;99.90;;;;;;5071354;28;19974;-63
2022/10/05 13:14:17;;;;;;;;;;;24.40;99.90;;;;;;5071637;28;19968;-63
2022/10/05 13:16:51;;;;;;;;;;;24.30;99.90;;;;;;5071821;28;19967;-62
2022/10/05 13:19:30;;;;;;;;;;;24.30;99.90;;;;;;5071304;28;19967;-63
2022/10/05 13:22:04;;;;;;;;;;;24.10;99.90;;;;;;5071484;28;19968;-63
2022/10/05 13:24:36;;;;;;;;;;;24.00;99.90;;;;;;5071496;28;19972;-63
2022/10/05 13:27:08;;;;;;;;;;;24.20;99.90;;;;;;5070902;28;19964;-63
2022/10/05 13:29:40;;;;;;;;;;;24.10;99.90;;;;;;5071163;28;20121;-63
2022/10/05 13:32:14;;;;;;;;;;;24.10;99.90;;;;;;5065260;28;19964;-63
2022/10/05 13:34:45;;;;;;;;;;;24.10;99.90;;;;;;5071927;28;20572;-63
2022/10/05 13:37:18;;;;;;;;;;;24.00;99.90;;;;;;5071132;28;20435;-63
2022/10/05 13:39:52;;;;;;;;;;;23.70;99.90;;;;;;5071539;28;19968;-63
2022/10/05 13:42:22;;;;;;;;;;;23.90;99.90;;;;;;5071578;28;20343;-63
2022/10/05 13:44:53;;;;;;;;;;;24.20;99.90;;;;;;5071627;28;20074;-63
2022/10/05 13:47:25;;;;;;;;;;;24.30;99.90;;;;;;5071105;28;19986;-63
2022/10/05 13:49:56;;;;;;;;;;;24.70;99.90;;;;;;5071034;28;19968;-63
2022/10/05 13:52:29;;;;;;;;;;;24.60;99.90;;;;;;5071295;28;19970;-63
2022/10/05 13:54:59;;;;;;;;;;;24.30;99.90;;;;;;5071474;28;19995;-63
2022/10/05 13:57:43;;;;;;;;;;;24.70;99.90;;;;;;5070592;28;20438;-63
2022/10/05 14:00:16;;;;;;;;;;;24.40;99.90;;;;;;5065336;28;19994;-63
2022/10/05 14:02:48;;;;;;;;;;;24.10;99.90;;;;;;5070931;28;19972;-63
2022/10/05 14:05:19;;;;;;;;;;;24.40;99.90;;;;;;5071285;28;19964;-62
2022/10/05 14:07:51;;;;;;;;;;;24.70;99.90;;;;;;5071104;28;20444;-63
2022/10/05 14:10:32;;;;;;;;;;;24.80;99.90;;;;;;5070991;28;19989;-63
2022/10/05 14:13:02;;;;;;;;;;;25.10;99.90;;;;;;5071000;28;20347;-63
2022/10/05 14:15:31;;;;;;;;;;;24.70;99.90;;;;;;5070905;28;20399;-63
2022/10/05 14:17:59;;;;;;;;;;;24.20;99.90;;;;;;5071167;28;19971;-63
2022/10/05 14:20:29;;;;;;;;;;;23.60;99.90;;;;;;5070894;28;20347;-63
2022/10/05 14:22:59;;;;;;;;;;;23.10;99.90;;;;;;5070967;28;19967;-63
2022/10/05 14:25:27;;;;;;;;;;;22.60;99.90;;;;;;5070895;28;20390;-62
2022/10/05 14:27:59;;;;;;;;;;;22.20;99.90;;;;;;5070755;28;19962;-62
2022/10/05 14:30:28;;;;;;;;;;;22.00;99.90;;;;;;5071318;28;20395;-63
2022/10/05 14:32:58;;;;;;;;;;;21.90;99.90;;;;;;5074262;28;19962;-63
2022/10/05 14:35:27;;;;;;;;;;;21.90;99.90;;;;;;5074080;28;20010;-62
2022/10/05 14:37:59;;;;;;;;;;;21.90;99.90;;;;;;5068337;28;20317;-63
2022/10/05 14:40:28;;;;;;;;;;;22.00;99.90;;;;;;5068121;28;19963;-63
2022/10/05 14:42:57;;;;;;;;;;;22.30;99.90;;;;;;5074351;28;19977;-63
2022/10/05 14:45:27;;;;;;;;;;;22.50;99.90;;;;;;5074168;28;20305;-63
2022/10/05 14:48:04;;;;;;;;;;;22.70;99.90;;;;;;5074327;28;19969;-63
2022/10/05 14:50:32;;;;;;;;;;;23.20;99.90;;;;;;5074149;28;19967;-62
2022/10/05 14:53:09;;;;;;;;;;;23.40;99.90;;;;;;5074401;28;20080;-63
2022/10/05 14:55:49;;;;;;;;;;;23.30;99.90;;;;;;5074745;28;19958;-63
2022/10/05 14:58:28;;;;;;;;;;;23.10;99.90;;;;;;5073581;28;19964;-63
2022/10/05 15:00:59;;;;;;;;;;;23.00;99.90;;;;;;5073714;28;19978;-63